Time;durP1;ratioP1;P1;durP2;ratioP2;P2;SDS_P1;SDS_P2;PMS_P1;PMS_P2;Temp;Humidity;BMP_temperature;BMP_pressure;BME280_temperature;BME280_humidity;BME280_pressure;Samples;Min_cycle;Max_cycle;Signal;HPM_P1;HPM_P2
2021/11/29 00:02:49;;;;;;;;;47.80;37.20;;;;;7.76;54.99;96529.38;6161222;28;96867;-65
2021/11/29 00:05:53;;;;;;;;;44.80;35.80;;;;;7.80;54.98;96525.09;6169378;28;97392;-66
2021/11/29 00:08:56;;;;;;;;;44.00;36.00;;;;;7.77;54.94;96512.19;6164277;28;98603;-66
2021/11/29 00:12:01;;;;;;;;;49.40;36.00;;;;;7.87;54.73;96510.63;6159419;28;97415;-66
2021/11/29 00:15:05;;;;;;;;;45.80;35.20;;;;;7.86;54.93;96519.75;6173081;28;97321;-65
2021/11/29 00:18:08;;;;;;;;;47.00;35.40;;;;;7.83;54.77;96526.44;6175483;28;99461;-66
2021/11/29 00:21:13;;;;;;;;;43.75;34.75;;;;;7.83;54.77;96537.16;6161056;28;97408;-65
2021/11/29 00:24:17;;;;;;;;;47.00;36.00;;;;;7.81;54.97;96545.47;6166791;28;97506;-64
2021/11/29 00:27:22;;;;;;;;;47.00;35.20;;;;;7.88;54.69;96550.59;6161014;28;97428;-65
2021/11/29 00:30:25;;;;;;;;;47.00;36.20;;;;;7.91;54.74;96550.09;6157305;28;97735;-64
2021/11/29 00:33:28;;;;;;;;;43.00;33.40;;;;;7.79;55.08;96544.94;6163538;28;97110;-64
2021/11/29 00:36:32;;;;;;;;;47.40;35.00;;;;;7.89;54.84;96533.44;6178585;28;97949;-65
2021/11/29 00:39:36;;;;;;;;;46.60;33.40;;;;;7.91;54.74;96534.00;6173556;28;96635;-66
2021/11/29 00:42:41;;;;;;;;;45.00;33.00;;;;;7.87;54.84;96534.78;6182810;28;96393;-66
2021/11/29 00:45:44;;;;;;;;;47.00;36.40;;;;;7.94;54.54;96543.38;6148735;28;98404;-66
2021/11/29 00:48:48;;;;;;;;;45.00;33.00;;;;;8.03;54.48;96547.16;6185768;28;96364;-65
2021/11/29 00:51:51;;;;;;;;;45.00;34.00;;;;;7.93;54.64;96555.97;6179923;28;97179;-65
2021/11/29 00:54:54;;;;;;;;;46.80;35.00;;;;;7.94;54.54;96565.66;6185788;28;96543;-64
2021/11/29 00:57:59;;;;;;;;;44.20;33.00;;;;;7.99;54.45;96578.28;6184265;28;97981;-65
2021/11/29 01:01:03;;;;;;;;;37.00;32.00;;;;;7.80;54.78;96575.25;6161787;28;97328;-65
2021/11/29 01:04:07;;;;;;;;;43.60;35.20;;;;;7.89;54.77;96570.19;6159663;28;97044;-66
2021/11/29 01:07:10;;;;;;;;;41.00;32.80;;;;;7.93;54.62;96572.06;6184163;28;98050;-66
2021/11/29 01:10:16;;;;;;;;;46.00;32.80;;;;;7.97;54.65;96567.00;6161242;28;97002;-66
2021/11/29 01:13:22;;;;;;;;;38.80;31.60;;;;;8.01;54.54;96560.88;6168302;28;96755;-64
2021/11/29 01:16:25;;;;;;;;;44.00;35.00;;;;;7.80;54.39;96533.13;6167978;28;97210;-65
2021/11/29 01:19:29;;;;;;;;;41.25;32.25;;;;;8.01;54.34;96562.75;6166138;28;97165;-64
2021/11/29 01:22:32;;;;;;;;;45.00;34.60;;;;;7.98;54.51;96557.88;6181781;28;97475;-65
2021/11/29 01:25:36;;;;;;;;;43.80;33.80;;;;;7.93;54.49;96555.16;6183059;28;97039;-65
2021/11/29 01:28:42;;;;;;;;;41.00;32.00;;;;;7.96;54.47;96552.78;6177020;28;98118;-64
2021/11/29 01:31:45;;;;;;;;;41.00;32.00;;;;;7.88;54.63;96550.59;6168776;28;97196;-65
2021/11/29 01:34:49;;;;;;;;;45.00;33.00;;;;;7.89;54.68;96554.91;6187432;28;96824;-65
2021/11/29 01:37:52;;;;;;;;;37.75;31.00;;;;;7.98;54.41;96557.88;6169201;28;98535;-65
2021/11/29 01:40:56;;;;;;;;;37.00;31.20;;;;;7.97;54.49;96564.31;6187031;28;96986;-64
2021/11/29 01:44:00;;;;;;;;;39.00;32.00;;;;;7.97;54.41;96564.31;6170022;28;97515;-65
2021/11/29 01:47:04;;;;;;;;;45.00;32.00;;;;;7.96;54.50;96563.53;6170807;28;98509;-65
2021/11/29 01:50:09;;;;;;;;;35.50;30.00;;;;;7.87;54.52;96567.75;6188982;28;96416;-64
2021/11/29 01:53:13;;;;;;;;;35.00;30.00;;;;;7.89;54.47;96578.22;6189378;28;96692;-64
2021/11/29 01:56:17;;;;;;;;;35.80;28.00;;;;;7.86;54.51;96579.56;6188181;28;96928;-65
2021/11/29 01:59:22;;;;;;;;;34.60;27.00;;;;;7.84;54.39;96582.50;6174843;28;96677;-65
2021/11/29 02:02:27;;;;;;;;;38.20;30.00;;;;;7.94;54.37;96575.56;6189276;28;97282;-64
2021/11/29 02:05:31;;;;;;;;;31.60;26.60;;;;;7.83;54.43;96580.88;6190008;28;96854;-64
2021/11/29 02:08:35;;;;;;;;;31.50;29.00;;;;;7.80;54.43;96573.38;6189284;28;97679;-64
2021/11/29 02:11:39;;;;;;;;;27.00;26.00;;;;;7.83;54.35;96580.88;6189134;28;97229;-65
2021/11/29 02:14:46;;;;;;;;;37.40;27.00;;;;;7.88;54.36;96584.66;6188697;28;97524;-65
2021/11/29 02:17:50;;;;;;;;;32.60;28.20;;;;;7.83;54.20;96583.56;6189004;28;97581;-65
2021/11/29 02:21:06;;;;;;;;;30.60;26.40;;;;;7.84;54.38;96579.00;6189058;28;97880;-64
2021/11/29 02:24:10;;;;;;;;;35.00;29.00;;;;;7.81;54.50;96580.34;6174867;28;97593;-65
2021/11/29 02:27:13;;;;;;;;;33.50;27.00;;;;;7.80;54.58;96578.72;6186341;28;96515;-65
2021/11/29 02:30:20;;;;;;;;;33.00;28.80;;;;;7.84;54.54;96577.13;6188708;28;97539;-64
2021/11/29 02:33:24;;;;;;;;;31.00;27.40;;;;;7.93;54.44;96576.63;6188287;28;97387;-65
2021/11/29 02:36:29;;;;;;;;;30.00;27.40;;;;;8.01;54.07;96578.84;6154242;28;97967;-65
2021/11/29 02:39:34;;;;;;;;;32.20;27.40;;;;;8.02;54.06;96572.38;6170584;28;96394;-64
2021/11/29 02:42:38;;;;;;;;;30.00;27.00;;;;;8.04;54.00;96575.63;6188314;28;96794;-65
2021/11/29 02:45:41;;;;;;;;;28.00;26.40;;;;;8.09;54.00;96581.00;6153212;28;97804;-65
2021/11/29 02:48:47;;;;;;;;;29.60;26.00;;;;;8.07;53.71;96586.63;6188312;28;97647;-65
2021/11/29 02:51:53;;;;;;;;;31.00;25.00;;;;;8.12;53.86;96589.34;6170370;28;96789;-64
2021/11/29 02:54:56;;;;;;;;;25.80;23.60;;;;;8.12;53.85;96589.34;6162984;28;96716;-64
2021/11/29 02:58:00;;;;;;;;;31.00;27.00;;;;;8.06;53.89;96587.69;6168771;28;96680;-66
2021/11/29 03:01:03;;;;;;;;;28.40;24.00;;;;;8.11;53.88;96586.94;6184169;28;96682;-66
2021/11/29 03:04:07;;;;;;;;;27.00;23.60;;;;;8.03;53.80;96574.81;6177796;28;97426;-67
2021/11/29 03:07:12;;;;;;;;;22.00;21.00;;;;;8.06;53.76;96576.19;6186040;28;97094;-67
2021/11/29 03:10:16;;;;;;;;;26.60;22.00;;;;;8.11;53.82;96589.63;6167879;28;98305;-67
2021/11/29 03:13:19;;;;;;;;;26.00;22.00;;;;;8.11;53.66;96593.09;6167888;28;96992;-66
2021/11/29 03:16:23;;;;;;;;;27.00;23.00;;;;;8.04;54.00;96595.22;6185839;28;96730;-66
2021/11/29 03:19:30;;;;;;;;;26.20;23.60;;;;;8.07;54.03;96594.69;6186085;28;97409;-66
2021/11/29 03:22:35;;;;;;;;;28.00;24.00;;;;;8.04;54.07;96591.72;6187576;28;96924;-66
2021/11/29 03:25:41;;;;;;;;;24.50;20.00;;;;;7.93;54.32;96598.91;6168650;28;98734;-66
2021/11/29 03:28:46;;;;;;;;;29.50;26.25;;;;;7.90;54.33;96593.25;6136583;28;100197;-66
2021/11/29 03:31:52;;;;;;;;;30.20;26.40;;;;;7.99;54.18;96597.88;6161697;28;98405;-65
2021/11/29 03:34:55;;;;;;;;;27.00;24.00;;;;;7.94;54.08;96591.66;6164800;28;97513;-66
2021/11/29 03:38:00;;;;;;;;;28.00;25.40;;;;;7.96;54.01;96600.28;6187422;28;97056;-65
2021/11/29 03:41:04;;;;;;;;;28.75;24.00;;;;;7.94;54.10;96594.34;6187018;28;97832;-66
2021/11/29 03:44:08;;;;;;;;;26.00;23.00;;;;;7.98;53.83;96587.38;6186608;28;96845;-65
2021/11/29 03:47:12;;;;;;;;;28.40;25.80;;;;;8.00;53.80;96585.25;6169196;28;96933;-66
2021/11/29 03:50:15;;;;;;;;;28.00;26.00;;;;;8.06;53.73;96578.88;6155512;28;97243;-66
2021/11/29 03:53:20;;;;;;;;;27.50;25.50;;;;;8.10;53.53;96577.25;6187084;28;97555;-66
2021/11/29 03:56:24;;;;;;;;;28.60;25.00;;;;;8.04;53.81;96575.63;6175814;28;97371;-66
2021/11/29 03:59:27;;;;;;;;;31.80;26.40;;;;;8.09;53.78;96581.00;6176553;28;97424;-66
2021/11/29 04:02:30;;;;;;;;;33.80;26.20;;;;;8.11;53.85;96584.25;6185843;28;96432;-66
2021/11/29 04:05:34;;;;;;;;;30.00;26.50;;;;;8.08;54.00;96574.03;6186816;28;97467;-66
2021/11/29 04:08:39;;;;;;;;;38.00;28.50;;;;;8.11;54.01;96584.25;6186892;28;96560;-66
2021/11/29 04:11:42;;;;;;;;;32.80;28.20;;;;;8.09;54.04;96589.88;6168398;28;97036;-66
2021/11/29 04:14:45;;;;;;;;;31.00;26.00;;;;;8.05;54.11;96588.78;6168617;28;97509;-66
2021/11/29 04:17:49;;;;;;;;;30.50;26.00;;;;;8.08;53.97;96587.44;6186423;28;97579;-65
2021/11/29 04:20:53;;;;;;;;;27.80;24.20;;;;;8.10;53.99;96586.13;6185594;28;97433;-66
2021/11/29 04:23:58;;;;;;;;;30.00;26.00;;;;;8.01;53.89;96594.94;6166692;28;97731;-66
2021/11/29 04:27:03;;;;;;;;;27.80;25.40;;;;;8.05;53.90;96591.47;6176102;28;97482;-66
2021/11/29 04:30:11;;;;;;;;;28.20;25.60;;;;;7.93;54.15;96590.03;6147387;28;97142;-65
2021/11/29 04:33:15;;;;;;;;;31.25;26.75;;;;;7.94;54.05;96591.66;6178292;28;96505;-66
2021/11/29 04:36:18;;;;;;;;;32.50;27.00;;;;;7.92;54.20;96605.31;6168242;28;98014;-66
2021/11/29 04:39:23;;;;;;;;;31.75;26.00;;;;;8.00;54.12;96601.38;6183274;28;96861;-65
2021/11/29 04:42:26;;;;;;;;;31.00;25.40;;;;;7.88;53.81;96596.19;6179632;28;96906;-66
2021/11/29 04:45:32;;;;;;;;;27.20;25.00;;;;;7.99;54.23;96611.28;6166358;28;96933;-66
2021/11/29 04:48:38;;;;;;;;;27.00;25.00;;;;;7.93;54.13;96612.31;6168541;28;97176;-66
2021/11/29 04:51:42;;;;;;;;;28.20;26.00;;;;;7.88;54.08;96600.75;6158022;28;97782;-66
2021/11/29 04:54:47;;;;;;;;;28.50;25.00;;;;;7.99;53.91;96611.28;6165327;28;97128;-66
2021/11/29 04:57:50;;;;;;;;;29.00;26.40;;;;;8.01;53.76;96611.84;6188926;28;96544;-66
2021/11/29 05:00:54;;;;;;;;;27.00;24.00;;;;;8.13;53.74;96606.25;6190081;28;96545;-66
2021/11/29 05:03:58;;;;;;;;;26.00;23.00;;;;;7.95;54.14;96618.25;6189558;28;96783;-65
2021/11/29 05:07:01;;;;;;;;;30.00;27.00;;;;;8.04;53.82;96619.34;6186432;28;98131;-64
2021/11/29 05:10:08;;;;;;;;;25.60;23.00;;;;;8.07;53.81;96618.00;6168314;28;96858;-64
2021/11/29 05:13:12;;;;;;;;;28.50;24.50;;;;;8.07;53.54;96610.78;6178614;28;96730;-65
2021/11/29 05:16:16;;;;;;;;;29.50;24.25;;;;;7.97;53.63;96612.59;6173804;28;97441;-65
2021/11/29 05:19:19;;;;;;;;;26.40;22.20;;;;;7.98;53.69;96611.53;6171583;28;97062;-67
2021/11/29 05:22:22;;;;;;;;;30.60;25.00;;;;;7.90;53.77;96615.53;6167523;28;97903;-66
2021/11/29 05:25:27;;;;;;;;;24.00;20.00;;;;;7.87;53.82;96623.28;6171063;28;98338;-66
2021/11/29 05:28:31;;;;;;;;;26.00;23.50;;;;;7.93;53.65;96633.78;6189365;28;96511;-66
2021/11/29 05:31:34;;;;;;;;;25.40;23.00;;;;;7.88;53.46;96623.00;6179304;28;97107;-66
2021/11/29 05:34:37;;;;;;;;;23.00;21.00;;;;;7.90;53.33;96615.53;6178846;28;96502;-66
2021/11/29 05:37:55;;;;;;;;;21.60;19.60;;;;;8.03;53.24;96639.19;6177967;28;97075;-64
2021/11/29 05:41:01;;;;;;;;;25.80;22.80;;;;;7.87;53.23;96612.56;6170615;28;97270;-65
2021/11/29 05:44:05;;;;;;;;;20.00;18.60;;;;;8.03;53.13;96628.47;6182175;28;97467;-64
2021/11/29 05:47:08;;;;;;;;;19.00;19.00;;;;;8.02;53.16;96634.09;6182412;28;97790;-65
2021/11/29 05:50:14;;;;;;;;;20.80;18.80;;;;;8.04;53.13;96638.13;6188509;28;98603;-65
2021/11/29 05:53:18;;;;;;;;;23.00;21.00;;;;;7.93;53.41;96643.69;6176364;28;97210;-65
2021/11/29 05:56:23;;;;;;;;;22.60;22.00;;;;;8.02;53.22;96645.63;6186428;28;96632;-66
2021/11/29 05:59:27;;;;;;;;;23.00;19.75;;;;;7.96;53.46;96654.75;6168639;28;96647;-65
2021/11/29 06:02:31;;;;;;;;;24.00;22.00;;;;;7.96;53.40;96654.75;6181891;28;97184;-65
2021/11/29 06:05:34;;;;;;;;;21.00;19.00;;;;;7.80;53.62;96677.16;6177258;28;97730;-67
2021/11/29 06:08:37;;;;;;;;;24.00;20.50;;;;;7.88;53.85;96683.91;6151604;28;96698;-67
2021/11/29 06:11:43;;;;;;;;;29.00;23.40;;;;;7.99;53.52;96691.78;6175273;28;96445;-68
2021/11/29 06:14:46;;;;;;;;;26.40;22.40;;;;;7.90;53.58;96697.88;6176909;28;96519;-69
2021/11/29 06:17:50;;;;;;;;;25.00;22.40;;;;;7.87;53.66;96695.72;6161916;28;98030;-68
2021/11/29 06:20:53;;;;;;;;;26.40;23.00;;;;;7.89;53.64;96696.25;6161873;28;97796;-68
2021/11/29 06:23:57;;;;;;;;;28.00;23.80;;;;;8.01;53.62;96696.88;6181564;28;97701;-67
2021/11/29 06:27:02;;;;;;;;;26.00;22.00;;;;;7.92;53.64;96685.81;6169867;28;98595;-67
2021/11/29 06:30:06;;;;;;;;;23.25;21.25;;;;;7.93;53.60;96687.44;6168974;28;97071;-68
2021/11/29 06:33:09;;;;;;;;;28.40;24.00;;;;;7.92;53.81;96682.31;6180197;28;97260;-68
2021/11/29 06:36:13;;;;;;;;;22.80;19.20;;;;;7.91;53.81;96694.13;6162205;28;96833;-67
2021/11/29 06:39:18;;;;;;;;;28.60;23.20;;;;;8.00;53.90;96693.41;6151476;28;96858;-68
2021/11/29 06:42:23;;;;;;;;;23.60;22.00;;;;;8.07;53.63;96690.47;6180090;28;96757;-67
2021/11/29 06:45:27;;;;;;;;;24.80;22.00;;;;;8.09;53.49;96701.75;6148997;28;98404;-68
2021/11/29 06:48:30;;;;;;;;;23.00;21.00;;;;;8.09;53.37;96707.94;6163684;28;96607;-65
2021/11/29 06:51:34;;;;;;;;;26.00;22.00;;;;;7.86;53.82;96712.88;6170346;28;97162;-68
2021/11/29 06:54:38;;;;;;;;;24.50;21.75;;;;;7.79;54.22;96719.25;6181936;28;96993;-66
2021/11/29 06:57:43;;;;;;;;;25.50;21.50;;;;;7.71;53.87;96725.09;6164070;28;97294;-66
2021/11/29 07:00:48;;;;;;;;;26.40;22.00;;;;;7.88;54.10;96724.13;6196592;28;97376;-67
2021/11/29 07:03:54;;;;;;;;;26.40;23.60;;;;;7.94;53.90;96725.81;6159920;28;96694;-69
2021/11/29 07:06:59;;;;;;;;;26.80;24.40;;;;;7.80;54.14;96726.25;6187861;28;98460;-65
2021/11/29 07:10:03;;;;;;;;;25.40;22.00;;;;;7.84;54.14;96732.72;6171867;28;100002;-65
2021/11/29 07:13:08;;;;;;;;;26.00;23.00;;;;;7.92;54.06;96734.09;6149953;28;98319;-67
2021/11/29 07:16:12;;;;;;;;;22.00;19.00;;;;;7.95;53.78;96730.91;6164777;28;96690;-67
2021/11/29 07:19:17;;;;;;;;;24.60;22.20;;;;;7.95;53.86;96722.06;6175846;28;96678;-67
2021/11/29 07:22:20;;;;;;;;;26.00;23.40;;;;;8.01;53.63;96707.63;6179552;28;97484;-66
2021/11/29 07:25:24;;;;;;;;;25.75;21.75;;;;;7.89;54.02;96718.53;6157210;28;96830;-67
2021/11/29 07:28:29;;;;;;;;;23.80;22.00;;;;;7.87;54.12;96722.53;6155740;28;97618;-69
2021/11/29 07:31:33;;;;;;;;;26.80;21.20;;;;;7.94;54.02;96728.47;6167909;28;96405;-67
2021/11/29 07:34:37;;;;;;;;;28.00;23.50;;;;;7.88;54.16;96727.63;6169278;28;96581;-67
2021/11/29 07:37:42;;;;;;;;;25.00;22.20;;;;;7.83;54.06;96741.81;6181972;28;96938;-66
2021/11/29 07:40:46;;;;;;;;;26.25;22.25;;;;;7.81;54.18;96751.19;6170239;28;97789;-68
2021/11/29 07:43:52;;;;;;;;;28.00;24.20;;;;;7.67;54.57;96761.50;6169657;28;97496;-65
2021/11/29 07:46:56;;;;;;;;;25.60;22.80;;;;;7.60;54.93;96752.06;6179236;28;97214;-66
2021/11/29 07:50:00;;;;;;;;;22.00;20.80;;;;;7.62;54.87;96745.41;6176813;28;97146;-65
2021/11/29 07:53:04;;;;;;;;;26.00;22.00;;;;;7.64;54.68;96743.25;6166951;28;97465;-67
2021/11/29 07:56:08;;;;;;;;;24.60;23.60;;;;;7.57;54.44;96760.63;6172104;28;97346;-66
2021/11/29 07:59:13;;;;;;;;;25.20;21.80;;;;;7.62;54.49;96756.13;6179818;28;96831;-67
2021/11/29 08:02:17;;;;;;;;;21.20;20.00;;;;;7.49;54.76;96751.16;6162789;28;97114;-67
2021/11/29 08:05:21;;;;;;;;;20.00;19.00;;;;;7.71;54.64;96759.97;6167407;28;96820;-68
2021/11/29 08:08:25;;;;;;;;;27.00;24.00;;;;;7.82;54.47;96760.84;6177365;28;97315;-67
2021/11/29 08:11:28;;;;;;;;;24.80;23.00;;;;;7.78;54.18;96760.53;6171226;28;96977;-67
2021/11/29 08:14:33;;;;;;;;;26.00;22.00;;;;;7.92;54.11;96765.47;6179532;28;96989;-67
2021/11/29 08:17:37;;;;;;;;;22.40;21.00;;;;;7.96;53.83;96771.97;6174477;28;96676;-68
2021/11/29 08:20:41;;;;;;;;;25.60;24.00;;;;;7.99;53.77;96783.00;6177570;28;96712;-67
2021/11/29 08:23:44;;;;;;;;;24.00;22.00;;;;;8.02;53.66;96781.66;6140862;28;98516;-67
2021/11/29 08:27:08;;;;;;;;;32.60;27.00;;;;;7.95;53.55;96784.56;6161314;28;98368;-67
2021/11/29 08:30:15;;;;;;;;;29.25;26.25;;;;;8.04;53.60;96784.91;6176008;28;98141;-68
2021/11/29 08:33:19;;;;;;;;;23.00;21.00;;;;;7.81;53.57;96749.31;6156427;28;96674;-69
2021/11/29 08:36:22;;;;;;;;;28.40;25.00;;;;;7.92;53.51;96790.44;6180072;28;96854;-67
2021/11/29 08:39:26;;;;;;;;;23.80;21.00;;;;;7.78;53.81;96791.91;6182899;28;96410;-68
2021/11/29 08:42:29;;;;;;;;;31.25;24.50;;;;;7.89;53.50;96790.94;6184532;28;96656;-67
2021/11/29 08:45:35;;;;;;;;;30.00;26.00;;;;;7.92;53.33;96795.78;6183777;28;97824;-67
2021/11/29 08:48:38;;;;;;;;;26.40;23.40;;;;;8.03;53.12;96796.69;6179835;28;96875;-67
2021/11/29 08:51:42;;;;;;;;;23.25;20.25;;;;;7.97;52.88;96789.66;6167505;28;98222;-67
2021/11/29 08:54:45;;;;;;;;;22.20;20.00;;;;;7.99;52.90;96796.41;6180095;28;100202;-66
2021/11/29 08:57:49;;;;;;;;;27.40;23.00;;;;;7.92;53.10;96803.84;6169305;28;97499;-68
2021/11/29 09:00:55;;;;;;;;;23.60;22.40;;;;;7.80;53.35;96798.66;6180814;28;97063;-66
2021/11/29 09:03:58;;;;;;;;;20.00;19.00;;;;;7.88;53.32;96807.28;6152555;28;99639;-68
2021/11/29 09:07:02;;;;;;;;;24.40;19.40;;;;;7.70;53.24;96778.97;6175888;28;97249;-67
2021/11/29 09:10:08;;;;;;;;;18.00;17.00;;;;;7.84;53.08;96807.81;6163950;28;97406;-67
2021/11/29 09:13:12;;;;;;;;;20.25;18.25;;;;;7.95;53.02;96803.34;6173222;28;96936;-67
2021/11/29 09:16:18;;;;;;;;;20.25;18.25;;;;;7.83;52.77;96805.38;6188572;28;96863;-67
2021/11/29 09:19:21;;;;;;;;;24.60;20.00;;;;;7.97;52.80;96806.56;6163299;28;97220;-68
2021/11/29 09:22:25;;;;;;;;;24.40;20.80;;;;;8.07;52.62;96816.56;6176100;28;97887;-68
2021/11/29 09:25:29;;;;;;;;;24.00;21.00;;;;;7.93;52.78;96812.69;6153106;28;98411;-67
2021/11/29 09:28:34;;;;;;;;;23.00;18.80;;;;;7.96;52.79;96814.91;6153605;28;97219;-68
2021/11/29 09:31:39;;;;;;;;;22.20;20.00;;;;;8.10;52.51;96818.78;6165286;28;97772;-67
2021/11/29 09:34:43;;;;;;;;;24.60;21.00;;;;;8.26;52.34;96821.31;6181764;28;97388;-67
2021/11/29 09:37:47;;;;;;;;;26.00;23.20;;;;;8.04;52.39;96817.91;6144919;28;97728;-68
2021/11/29 09:40:52;;;;;;;;;24.00;21.00;;;;;8.07;52.47;96827.31;6183448;28;97663;-66
2021/11/29 09:43:56;;;;;;;;;24.75;20.00;;;;;8.06;52.38;96823.81;6165304;28;97146;-67
2021/11/29 09:47:00;;;;;;;;;20.20;18.00;;;;;7.97;nan;96824.53;6176041;28;98307;-66
2021/11/29 09:50:05;;;;;;;;;24.20;20.60;;;;;8.14;52.37;96825.25;6164167;28;97585;-69
2021/11/29 09:53:10;;;;;;;;;22.20;20.40;;;;;8.20;52.23;96827.72;6172465;28;96530;-67
2021/11/29 09:56:14;;;;;;;;;22.40;19.40;;;;;8.23;51.70;96821.00;6183051;28;96668;-67
2021/11/29 09:59:22;;;;;;;;;23.00;19.00;;;;;8.27;51.72;96822.94;6183040;28;97035;-67
2021/11/29 10:02:27;;;;;;;;;25.00;21.00;;;;;8.28;51.88;96829.09;6161496;28;97073;-68
2021/11/29 10:05:33;;;;;;;;;22.00;21.00;;;;;7.75;52.07;96741.47;6182853;28;98132;-67
2021/11/29 10:08:39;;;;;;;;;28.60;24.00;;;;;8.12;52.36;96836.22;6181346;28;97473;-67
2021/11/29 10:12:00;;;;;;;;;27.60;25.00;;;;;8.10;52.23;96833.00;6158488;28;99853;-69
2021/11/29 10:15:23;;;;;;;;;30.25;26.00;;;;;8.12;52.46;96838.09;6186886;28;97389;-67
2021/11/29 10:18:29;;;;;;;;;28.60;24.80;;;;;8.00;52.77;96832.09;6180879;28;97854;-68
2021/11/29 10:21:32;;;;;;;;;27.60;24.00;;;;;8.08;52.59;96843.16;6172684;28;96614;-68
2021/11/29 10:24:40;;;;;;;;;25.00;22.00;;;;;8.04;52.42;96839.38;6167513;28;96798;-68
2021/11/29 10:27:44;;;;;;;;;26.33;23.33;;;;;7.90;52.39;96815.91;6187771;28;97738;-67
2021/11/29 10:31:06;;;;;;;;;28.40;24.00;;;;;7.93;52.44;96848.41;6165062;28;97543;-67
2021/11/29 10:34:13;;;;;;;;;28.00;24.00;;;;;7.92;52.89;96845.97;6175419;28;98440;-67
2021/11/29 10:37:16;;;;;;;;;23.40;21.40;;;;;7.93;52.50;96864.50;6155800;28;96833;-67
2021/11/29 10:40:21;;;;;;;;;23.00;21.00;;;;;7.93;52.61;96853.75;6181812;28;98071;-67
2021/11/29 10:43:36;;;;;;;;;27.00;25.00;;;;;8.01;52.49;96856.00;6162948;28;98453;-65
2021/11/29 10:46:42;;;;;;;;;24.00;21.50;;;;;7.96;52.75;96860.50;6177826;28;97438;-66
2021/11/29 10:49:52;;;;;;;;;27.00;25.00;;;;;8.02;52.47;96848.72;6165551;28;98442;-67
2021/11/29 10:53:10;;;;;;;;;26.50;23.50;;;;;7.94;52.10;96819.69;6157844;28;99478;-66
2021/11/29 10:56:14;;;;;;;;;26.00;24.40;;;;;8.05;52.46;96854.41;6167703;28;97758;-69
2021/11/29 10:59:21;;;;;;;;;25.50;22.50;;;;;8.08;52.23;96855.78;6179079;28;97466;-68
2021/11/29 11:02:26;;;;;;;;;25.50;21.75;;;;;8.04;52.37;96860.84;6160379;28;98417;-69
2021/11/29 11:05:33;;;;;;;;;25.00;23.00;;;;;7.94;52.59;96868.81;6164893;28;97715;-69
2021/11/29 11:08:37;;;;;;;;;30.60;25.60;;;;;7.87;52.78;96862.03;6145090;28;98771;-68
2021/11/29 11:11:42;;;;;;;;;28.40;24.00;;;;;7.71;53.14;96861.06;6163272;28;97424;-69
2021/11/29 11:14:50;;;;;;;;;28.25;23.25;;;;;7.82;53.07;96863.56;6173744;28;96876;-67
2021/11/29 11:18:14;;;;;;;;;28.80;25.00;;;;;7.88;52.94;96861.75;6181544;28;97673;-66
2021/11/29 11:21:18;;;;;;;;;26.25;22.00;;;;;7.85;52.68;96856.91;6158872;28;97287;-66
2021/11/29 11:24:25;;;;;;;;;25.80;22.80;;;;;7.94;52.50;96854.56;6185373;28;97638;-68
2021/11/29 11:27:31;;;;;;;;;26.20;22.60;;;;;8.02;52.40;96854.09;6182792;28;97442;-69
2021/11/29 11:30:41;;;;;;;;;24.60;21.00;;;;;8.04;52.30;96870.75;6148208;28;97438;-68
2021/11/29 11:33:55;;;;;;;;;28.60;25.00;;;;;8.15;51.96;96867.13;6165901;28;96452;-67
2021/11/29 11:37:00;;;;;;;;;26.25;23.25;;;;;8.03;52.08;96861.09;6154402;28;96640;-68
2021/11/29 11:40:06;;;;;;;;;26.00;24.25;;;;;8.04;51.98;96855.47;6164933;28;96919;-69
2021/11/29 11:43:12;;;;;;;;;27.40;24.60;;;;;8.14;51.88;96877.03;6180467;28;96970;-68
2021/11/29 11:46:17;;;;;;;;;27.80;23.40;;;;;8.09;51.85;96862.75;6156262;28;98044;-68
2021/11/29 11:49:23;;;;;;;;;23.40;22.00;;;;;8.16;51.75;96869.53;6158078;28;96641;-65
2021/11/29 11:52:27;;;;;;;;;26.40;23.40;;;;;8.01;51.94;96876.66;6162080;28;98408;-68
2021/11/29 11:55:33;;;;;;;;;27.00;23.40;;;;;7.85;51.83;96859.59;6184840;28;96972;-69
2021/11/29 11:58:42;;;;;;;;;27.00;25.00;;;;;8.12;51.77;96873.78;6140727;28;98904;-68
2021/11/29 12:01:49;;;;;;;;;25.20;23.80;;;;;8.08;51.89;96875.38;6183646;28;96757;-69
2021/11/29 12:05:25;;;;;;;;;23.20;22.80;;;;;8.15;51.80;96873.31;6163537;28;97101;-68
2021/11/29 12:08:33;;;;;;;;;23.60;21.20;;;;;8.24;51.54;96889.75;6101642;28;97182;-67
2021/11/29 12:11:40;;;;;;;;;26.00;23.60;;;;;8.21;51.19;96887.53;6090456;28;98134;-65
2021/11/29 12:14:43;;;;;;;;;26.20;24.20;;;;;8.12;51.31;96894.44;6103917;28;97418;-65
2021/11/29 12:17:47;;;;;;;;;24.75;22.00;;;;;8.13;51.45;96890.69;6091317;28;97066;-65
2021/11/29 12:21:13;;;;;;;;;22.00;20.00;;;;;8.11;51.42;96879.44;6084287;28;97814;-66
2021/11/29 12:24:21;;;;;;;;;22.75;21.25;;;;;8.25;51.24;96897.56;6105962;28;97742;-68
2021/11/29 12:27:40;;;;;;;;;24.75;20.75;;;;;8.21;51.05;96898.28;6104455;28;96599;-67
2021/11/29 12:30:45;;;;;;;;;22.60;20.60;;;;;8.02;50.91;96900.53;6089067;28;98495;-67
2021/11/29 12:33:49;;;;;;;;;23.50;21.50;;;;;8.01;51.24;96906.97;6104879;28;96677;-68
2021/11/29 12:37:12;;;;;;;;;21.00;19.00;;;;;8.03;51.35;96910.19;6102645;28;96779;-68
2021/11/29 12:40:19;;;;;;;;;20.60;18.20;;;;;8.11;50.79;96908.94;6102633;28;97719;-68
2021/11/29 12:43:35;;;;;;;;;22.60;18.60;;;;;7.81;51.29;96910.25;6149532;28;97991;-67
2021/11/29 12:46:38;;;;;;;;;20.80;18.20;;;;;7.92;51.12;96911.16;6148950;28;97628;-67
2021/11/29 12:49:42;;;;;;;;;21.75;19.50;;;;;7.86;51.05;96911.38;6156795;28;99488;-68
2021/11/29 12:52:47;;;;;;;;;23.00;18.00;;;;;7.76;51.02;96894.13;6174815;28;97440;-67
2021/11/29 12:55:55;;;;;;;;;23.50;18.50;;;;;7.89;51.31;96911.66;6152823;28;98585;-68
2021/11/29 12:59:04;;;;;;;;;21.60;19.00;;;;;7.83;51.06;96918.03;6153437;28;96917;-68
2021/11/29 13:02:43;;;;;;;;;24.00;22.00;;;;;7.90;50.98;96915.16;6173378;28;97570;-68
2021/11/29 13:05:52;;;;;;;;;23.60;20.00;;;;;7.97;51.25;96926.50;6154613;28;97092;-67
2021/11/29 13:09:02;;;;;;;;;22.50;21.00;;;;;7.90;51.11;96928.59;6155834;28;97039;-68
2021/11/29 13:12:19;;;;;;;;;24.20;19.80;;;;;8.06;51.03;96938.41;6158229;28;97640;-68
2021/11/29 13:15:26;;;;;;;;;20.60;18.00;;;;;7.76;50.95;96891.44;6166050;28;96545;-67
2021/11/29 13:18:52;;;;;;;;;21.00;18.00;;;;;7.88;51.27;96936.88;6167376;28;97375;-67
2021/11/29 13:21:59;;;;;;;;;26.00;22.00;;;;;7.74;51.23;96949.06;6163167;28;99444;-68
2021/11/29 13:25:03;;;;;;;;;27.40;24.40;;;;;7.73;51.46;96948.25;6183812;28;97397;-67
2021/11/29 13:28:09;;;;;;;;;24.25;22.75;;;;;7.83;51.84;96964.44;6165712;28;98587;-68
2021/11/29 13:31:14;;;;;;;;;26.00;23.00;;;;;7.84;51.56;96963.41;6163326;28;97614;-67
2021/11/29 13:34:28;;;;;;;;;26.40;24.20;;;;;7.84;51.73;96973.31;6178242;28;96551;-64
2021/11/29 13:37:33;;;;;;;;;26.00;23.00;;;;;7.82;51.70;96956.66;6167542;28;99805;-68
2021/11/29 13:40:37;;;;;;;;;25.00;22.60;;;;;7.90;51.49;96975.00;6184040;28;96808;-67
2021/11/29 13:43:42;;;;;;;;;24.75;23.25;;;;;7.94;51.41;96967.25;6168752;28;97972;-68
2021/11/29 13:46:57;;;;;;;;;22.00;20.00;;;;;8.07;50.90;96973.03;6184315;28;98111;-68
2021/11/29 13:50:06;;;;;;;;;21.00;20.00;;;;;7.93;51.01;96977.16;6168111;28;98394;-66
2021/11/29 13:53:14;;;;;;;;;22.40;20.60;;;;;7.95;50.75;96977.75;6177115;28;99664;-66
2021/11/29 13:56:23;;;;;;;;;24.50;21.00;;;;;7.96;50.72;96989.28;6166595;28;97000;-68
2021/11/29 13:59:27;;;;;;;;;26.00;23.67;;;;;7.93;50.41;96998.63;6188013;28;96995;-69
2021/11/29 14:02:31;;;;;;;;;23.00;21.40;;;;;8.04;50.61;96996.88;6175385;28;96987;-69
2021/11/29 14:05:37;;;;;;;;;21.00;19.80;;;;;7.92;50.51;96996.19;6170672;28;97404;-67
2021/11/29 14:08:43;;;;;;;;;25.50;20.25;;;;;7.95;50.49;97001.06;6191025;28;97425;-68
2021/11/29 14:11:47;;;;;;;;;19.00;17.25;;;;;7.95;50.59;97001.88;6183595;28;96839;-68
2021/11/29 14:15:02;;;;;;;;;23.00;21.40;;;;;7.94;50.51;97013.69;6166223;28;97029;-68
2021/11/29 14:18:05;;;;;;;;;24.00;21.00;;;;;7.90;50.49;97006.38;6167800;28;96921;-67
2021/11/29 14:21:12;;;;;;;;;23.00;21.00;;;;;7.86;50.48;97014.13;6170886;28;97475;-68
2021/11/29 14:24:17;;;;;;;;;25.25;21.00;;;;;7.92;50.54;97015.78;6167776;28;97276;-67